Time;durP1;ratioP1;P1;durP2;ratioP2;P2;SDS_P1;SDS_P2;PMS_P1;PMS_P2;Temp;Humidity;BMP_temperature;BMP_pressure;BME280_temperature;BME280_humidity;BME280_pressure;Samples;Min_cycle;Max_cycle;Signal;HPM_P1;HPM_P2
2021/04/04 00:02:25;;;;;;;7.35;3.72;;;2.60;65.50;;;;;;3578783;40;20093;-62
2021/04/04 00:04:52;;;;;;;7.60;4.38;;;2.60;64.80;;;;;;3574371;40;20053;-61
2021/04/04 00:07:18;;;;;;;10.18;4.10;;;2.50;65.20;;;;;;3573305;40;20052;-61
2021/04/04 00:09:43;;;;;;;10.20;4.85;;;2.50;66.90;;;;;;3577337;40;20056;-61
2021/04/04 00:12:10;;;;;;;10.13;5.15;;;2.60;67.20;;;;;;3569546;40;20744;-62
2021/04/04 00:14:36;;;;;;;9.40;5.47;;;2.60;68.40;;;;;;3582761;40;20172;-61
2021/04/04 00:17:03;;;;;;;10.77;6.00;;;2.70;70.40;;;;;;3580138;40;20080;-62
2021/04/04 00:19:30;;;;;;;9.95;6.05;;;2.70;71.60;;;;;;3577364;40;20048;-61
2021/04/04 00:21:55;;;;;;;9.30;4.97;;;2.70;71.10;;;;;;3573908;40;20053;-62
2021/04/04 00:24:21;;;;;;;8.88;5.90;;;2.70;70.90;;;;;;3574313;40;20071;-62
2021/04/04 00:26:46;;;;;;;13.73;6.35;;;2.80;70.60;;;;;;3577889;40;20153;-62
2021/04/04 00:29:13;;;;;;;12.55;6.15;;;2.70;72.20;;;;;;3571190;40;20191;-61
2021/04/04 00:31:39;;;;;;;10.40;6.10;;;2.70;71.20;;;;;;3572456;40;20073;-62
2021/04/04 00:34:06;;;;;;;15.60;6.65;;;2.70;73.00;;;;;;3569784;40;20390;-61
2021/04/04 00:36:32;;;;;;;11.13;5.97;;;2.60;74.70;;;;;;3577649;40;20508;-62
2021/04/04 00:38:58;;;;;;;10.32;6.40;;;2.60;74.70;;;;;;3575043;40;20071;-62
2021/04/04 00:41:23;;;;;;;11.80;5.45;;;2.60;74.90;;;;;;3576607;40;20076;-61
2021/04/04 00:43:49;;;;;;;8.35;4.80;;;2.70;73.60;;;;;;3578904;40;20155;-61
2021/04/04 00:46:15;;;;;;;8.80;4.15;;;2.70;70.00;;;;;;3582163;40;20109;-62
2021/04/04 00:48:41;;;;;;;8.65;4.88;;;2.60;68.50;;;;;;3582123;40;20068;-62
2021/04/04 00:51:06;;;;;;;10.25;5.20;;;2.60;69.50;;;;;;3578614;40;20154;-62
2021/04/04 00:53:33;;;;;;;10.25;4.68;;;2.60;70.40;;;;;;3566042;40;20068;-61
2021/04/04 00:55:58;;;;;;;8.48;4.75;;;2.60;69.60;;;;;;3573837;40;20053;-61
2021/04/04 00:58:24;;;;;;;9.25;4.55;;;2.50;69.20;;;;;;3577094;40;20073;-62
2021/04/04 01:00:51;;;;;;;8.38;4.53;;;2.50;69.70;;;;;;3576105;40;20073;-61
2021/04/04 01:03:17;;;;;;;6.95;4.05;;;2.40;68.40;;;;;;3573580;40;20866;-62
2021/04/04 01:05:49;;;;;;;8.52;4.60;;;2.40;67.20;;;;;;3576089;40;20072;-61
2021/04/04 01:08:15;;;;;;;9.73;5.60;;;2.30;67.40;;;;;;3579500;40;20168;-62
2021/04/04 01:10:43;;;;;;;8.70;5.95;;;2.30;69.60;;;;;;3582374;40;20065;-61
2021/04/04 01:13:14;;;;;;;10.30;5.85;;;2.30;71.00;;;;;;3583516;40;20064;-62
2021/04/04 01:15:52;;;;;;;7.82;3.97;;;2.20;71.80;;;;;;3579395;40;20060;-61
2021/04/04 01:19:02;;;;;;;6.20;3.08;;;2.20;68.40;;;;;;3580607;40;20771;-61
2021/04/04 01:21:40;;;;;;;8.80;4.85;;;2.10;66.60;;;;;;3569198;40;20161;-61
2021/04/04 01:24:18;;;;;;;10.70;5.88;;;2.10;67.90;;;;;;3577215;40;20097;-62
2021/04/04 01:26:51;;;;;;;10.05;6.05;;;2.10;71.20;;;;;;3575740;40;20479;-61
2021/04/04 01:29:20;;;;;;;11.30;6.45;;;2.10;72.00;;;;;;3565517;40;20177;-62
2021/04/04 01:31:48;;;;;;;11.88;6.95;;;2.10;73.00;;;;;;3576948;40;20809;-61
2021/04/04 01:34:17;;;;;;;11.52;6.72;;;2.10;74.70;;;;;;3581444;40;20071;-61
2021/04/04 01:36:44;;;;;;;17.38;7.05;;;2.10;75.40;;;;;;3573615;40;20087;-61
2021/04/04 01:39:13;;;;;;;11.13;6.90;;;2.20;76.10;;;;;;3581493;40;20096;-61
2021/04/04 01:41:45;;;;;;;12.77;6.45;;;2.20;76.60;;;;;;3576825;40;20089;-62
2021/04/04 01:44:16;;;;;;;8.65;5.80;;;2.30;77.00;;;;;;3574458;40;20080;-62
2021/04/04 01:46:45;;;;;;;9.77;5.50;;;2.30;75.10;;;;;;3576448;40;20526;-62
2021/04/04 01:49:12;;;;;;;9.43;4.75;;;2.30;72.40;;;;;;3578717;40;20068;-61
2021/04/04 01:51:39;;;;;;;10.38;4.65;;;2.30;70.50;;;;;;3582064;40;20060;-61
2021/04/04 01:54:06;;;;;;;9.00;4.65;;;2.20;70.00;;;;;;3582695;40;20084;-62
2021/04/04 01:56:32;;;;;;;7.28;4.53;;;2.20;70.80;;;;;;3579658;40;20780;-61
2021/04/04 01:59:00;;;;;;;10.27;4.72;;;2.10;69.50;;;;;;3575464;40;20052;-62
2021/04/04 02:01:27;;;;;;;9.07;4.95;;;2.10;69.30;;;;;;3573829;40;20368;-61
2021/04/04 02:03:58;;;;;;;7.38;4.47;;;2.10;70.80;;;;;;3575905;40;20083;-61
2021/04/04 02:06:25;;;;;;;8.93;4.97;;;2.10;72.20;;;;;;3579728;40;20092;-62
2021/04/04 02:08:52;;;;;;;10.38;4.82;;;2.10;73.20;;;;;;3582845;40;20143;-61
2021/04/04 02:11:26;;;;;;;8.38;4.55;;;2.00;73.50;;;;;;3573649;40;20049;-61
2021/04/04 02:13:53;;;;;;;6.15;4.05;;;2.00;74.80;;;;;;3579065;40;20087;-62
2021/04/04 02:16:20;;;;;;;8.93;4.45;;;2.10;75.10;;;;;;3581849;40;20075;-61
2021/04/04 02:18:47;;;;;;;6.10;4.22;;;2.10;74.50;;;;;;3582605;40;20089;-61
2021/04/04 02:21:14;;;;;;;7.82;3.67;;;2.10;73.80;;;;;;3569192;40;20168;-61
2021/04/04 02:23:41;;;;;;;8.98;4.10;;;2.00;71.20;;;;;;3575777;40;20558;-61
2021/04/04 02:26:07;;;;;;;6.63;4.35;;;2.00;71.40;;;;;;3574444;40;20075;-61
2021/04/04 02:28:33;;;;;;;8.15;4.30;;;2.00;74.10;;;;;;3566276;40;20053;-61
2021/04/04 02:30:59;;;;;;;5.85;3.67;;;2.00;76.00;;;;;;3580729;40;20057;-61
2021/04/04 02:33:30;;;;;;;8.15;4.03;;;2.00;76.40;;;;;;3583263;40;20076;-62
2021/04/04 02:36:08;;;;;;;7.22;3.95;;;2.00;74.70;;;;;;3574999;40;20079;-63
2021/04/04 02:38:37;;;;;;;7.30;4.18;;;2.00;72.70;;;;;;3579486;40;20065;-63
2021/04/04 02:41:05;;;;;;;6.03;3.70;;;2.00;68.40;;;;;;3582363;40;20729;-64
2021/04/04 02:43:32;;;;;;;7.53;3.83;;;1.90;68.10;;;;;;3582695;40;20063;-63
2021/04/04 02:45:59;;;;;;;10.93;4.20;;;1.80;67.40;;;;;;3580418;40;20070;-63
2021/04/04 02:48:30;;;;;;;6.85;3.63;;;1.80;68.20;;;;;;3567258;40;20726;-64
2021/04/04 02:50:59;;;;;;;7.03;4.00;;;1.70;70.80;;;;;;3573358;40;20053;-63
2021/04/04 02:53:27;;;;;;;9.20;3.88;;;1.70;73.50;;;;;;3567584;40;20061;-63
2021/04/04 02:55:55;;;;;;;7.97;4.03;;;1.70;74.10;;;;;;3580755;40;20052;-63
2021/04/04 02:58:24;;;;;;;6.40;3.88;;;1.70;75.40;;;;;;3583891;40;20145;-63
2021/04/04 03:00:54;;;;;;;4.65;3.95;;;1.80;76.20;;;;;;3582085;40;20071;-63
2021/04/04 03:03:22;;;;;;;9.13;3.97;;;1.80;75.80;;;;;;3578334;40;20063;-62
2021/04/04 03:05:48;;;;;;;7.03;3.83;;;1.90;75.20;;;;;;3576491;40;20057;-61
2021/04/04 03:08:16;;;;;;;6.65;4.05;;;1.90;75.50;;;;;;3576360;40;20080;-63
2021/04/04 03:10:42;;;;;;;6.55;4.07;;;1.90;75.40;;;;;;3567188;40;20422;-63
2021/04/04 03:13:09;;;;;;;6.15;3.88;;;1.80;73.80;;;;;;3581950;40;20180;-63
2021/04/04 03:15:37;;;;;;;6.38;3.63;;;1.80;71.80;;;;;;3584396;40;21014;-64
2021/04/04 03:18:04;;;;;;;5.90;3.67;;;1.80;73.20;;;;;;3571219;40;20077;-63
2021/04/04 03:20:29;;;;;;;6.10;4.13;;;1.80;75.00;;;;;;3578324;40;20107;-61
2021/04/04 03:22:57;;;;;;;6.82;3.70;;;1.80;75.80;;;;;;3574887;40;20072;-63
2021/04/04 03:25:25;;;;;;;6.13;3.20;;;1.80;76.70;;;;;;3576256;40;20823;-64
2021/04/04 03:27:53;;;;;;;5.28;3.60;;;1.90;77.00;;;;;;3578975;40;20076;-63
2021/04/04 03:30:35;;;;;;;5.60;3.83;;;1.90;76.80;;;;;;3581828;40;20080;-63
2021/04/04 03:33:04;;;;;;;5.50;3.60;;;1.90;76.60;;;;;;3581828;40;20061;-63
2021/04/04 03:35:31;;;;;;;5.85;3.72;;;1.90;75.70;;;;;;3579553;40;20587;-61
2021/04/04 03:38:00;;;;;;;8.88;4.32;;;1.90;73.50;;;;;;3576285;40;20053;-63
2021/04/04 03:40:26;;;;;;;5.60;4.10;;;1.80;72.70;;;;;;3578181;40;20060;-63
2021/04/04 03:42:53;;;;;;;5.57;3.25;;;1.70;73.00;;;;;;3580054;40;20071;-63
2021/04/04 03:45:20;;;;;;;8.15;4.20;;;1.70;72.80;;;;;;3582279;40;20075;-63
2021/04/04 03:47:48;;;;;;;6.43;3.53;;;1.60;72.30;;;;;;3581226;40;20061;-63
2021/04/04 03:50:17;;;;;;;5.22;3.22;;;1.60;73.30;;;;;;3564843;40;20068;-63
2021/04/04 03:52:45;;;;;;;8.18;3.70;;;1.60;74.80;;;;;;3582319;40;20076;-64
2021/04/04 03:55:13;;;;;;;7.03;4.03;;;1.60;75.20;;;;;;3575089;40;20173;-63
2021/04/04 03:57:41;;;;;;;6.50;4.00;;;1.60;74.40;;;;;;3578782;40;20055;-64
2021/04/04 04:00:09;;;;;;;6.22;3.83;;;1.50;74.10;;;;;;3579392;40;20069;-63
2021/04/04 04:02:41;;;;;;;8.55;4.20;;;1.50;74.00;;;;;;3577181;40;20060;-63
2021/04/04 04:05:08;;;;;;;6.90;3.78;;;1.50;73.40;;;;;;3580162;40;20095;-63
2021/04/04 04:07:34;;;;;;;5.75;3.65;;;1.50;71.80;;;;;;3579922;40;20056;-63
2021/04/04 04:10:01;;;;;;;5.20;3.50;;;1.50;72.50;;;;;;3567028;40;20453;-63
2021/04/04 04:12:32;;;;;;;6.20;3.50;;;1.40;74.00;;;;;;3580972;40;20164;-64
2021/04/04 04:14:58;;;;;;;5.00;2.90;;;1.40;75.20;;;;;;3581004;40;20096;-63
2021/04/04 04:17:26;;;;;;;5.68;3.45;;;1.40;76.40;;;;;;3579627;40;20155;-63
2021/04/04 04:19:52;;;;;;;7.10;3.33;;;1.50;77.10;;;;;;3574598;40;20740;-63
2021/04/04 04:22:20;;;;;;;6.45;3.63;;;1.50;76.90;;;;;;3566102;40;20657;-63
2021/04/04 04:24:48;;;;;;;4.00;3.22;;;1.50;76.60;;;;;;3579659;40;20051;-63
2021/04/04 04:27:15;;;;;;;4.70;3.35;;;1.60;76.70;;;;;;3578680;40;20056;-64
2021/04/04 04:29:46;;;;;;;6.38;3.00;;;1.60;76.50;;;;;;3574908;40;20734;-64
2021/04/04 04:32:13;;;;;;;7.70;3.88;;;1.70;76.30;;;;;;3578778;40;20459;-63
2021/04/04 04:34:42;;;;;;;6.22;3.58;;;1.70;76.10;;;;;;3578513;40;20097;-64
2021/04/04 04:37:11;;;;;;;7.18;2.90;;;1.80;76.00;;;;;;3575935;40;20073;-64
2021/04/04 04:39:38;;;;;;;5.80;3.50;;;1.80;75.80;;;;;;3580281;40;20067;-63
2021/04/04 04:42:04;;;;;;;6.45;3.10;;;1.80;76.20;;;;;;3578595;40;20371;-64
2021/04/04 04:44:32;;;;;;;6.75;3.03;;;1.80;75.60;;;;;;3570319;40;20080;-64
2021/04/04 04:46:58;;;;;;;8.15;3.50;;;1.80;75.80;;;;;;3583109;40;20073;-63
2021/04/04 04:49:24;;;;;;;6.82;2.92;;;1.80;75.80;;;;;;3579995;40;20063;-63
2021/04/04 04:51:50;;;;;;;6.60;2.95;;;1.80;75.40;;;;;;3581655;40;20167;-64
2021/04/04 04:54:16;;;;;;;4.65;3.45;;;1.90;75.10;;;;;;3578960;40;20072;-63
2021/04/04 04:56:44;;;;;;;7.25;3.30;;;1.90;74.80;;;;;;3580876;40;20070;-62
2021/04/04 04:59:11;;;;;;;7.80;3.05;;;2.00;74.70;;;;;;3580172;40;20143;-61
2021/04/04 05:01:43;;;;;;;5.22;2.88;;;2.00;73.70;;;;;;3577808;40;20421;-63
2021/04/04 05:04:09;;;;;;;4.43;2.88;;;2.00;73.60;;;;;;3573842;40;20178;-62
2021/04/04 05:06:36;;;;;;;6.30;3.92;;;2.00;74.00;;;;;;3579272;40;20056;-61
2021/04/04 05:09:06;;;;;;;5.63;3.80;;;2.00;73.40;;;;;;3582064;40;20098;-64
2021/04/04 05:11:33;;;;;;;5.47;2.75;;;2.00;72.40;;;;;;3580520;40;20938;-61
2021/04/04 05:13:59;;;;;;;6.03;3.25;;;2.00;73.30;;;;;;3577991;40;20075;-62
2021/04/04 05:16:30;;;;;;;6.22;2.90;;;2.00;73.90;;;;;;3579635;40;20048;-61
2021/04/04 05:18:55;;;;;;;5.55;3.22;;;2.00;73.30;;;;;;3577413;40;20091;-64
2021/04/04 05:21:26;;;;;;;6.13;3.13;;;2.00;73.60;;;;;;3578947;40;20522;-62
2021/04/04 05:24:03;;;;;;;6.25;3.22;;;2.10;73.80;;;;;;3578816;40;20074;-61
2021/04/04 05:26:32;;;;;;;5.60;2.78;;;2.10;73.10;;;;;;3573718;40;20406;-61
2021/04/04 05:29:06;;;;;;;6.55;3.33;;;2.20;72.60;;;;;;3578799;40;20130;-62
2021/04/04 05:31:32;;;;;;;8.60;3.22;;;2.20;73.50;;;;;;3580684;40;20521;-62
2021/04/04 05:33:59;;;;;;;6.80;3.33;;;2.20;73.90;;;;;;3569480;40;20093;-61
2021/04/04 05:36:26;;;;;;;4.82;2.90;;;2.30;74.20;;;;;;3583882;40;20056;-61
2021/04/04 05:38:58;;;;;;;5.78;3.20;;;2.40;74.90;;;;;;3580514;40;20421;-61
2021/04/04 05:41:28;;;;;;;4.38;3.05;;;2.40;74.30;;;;;;3582029;40;20158;-61
2021/04/04 05:44:01;;;;;;;5.13;3.13;;;2.60;72.70;;;;;;3583023;40;20186;-62
2021/04/04 05:46:36;;;;;;;5.85;3.20;;;2.60;71.20;;;;;;3580477;40;20151;-61
2021/04/04 05:49:14;;;;;;;4.95;3.20;;;2.70;71.00;;;;;;3580509;40;20100;-61
2021/04/04 05:51:45;;;;;;;6.05;3.15;;;2.80;72.00;;;;;;3572049;40;20210;-61
2021/04/04 05:54:48;;;;;;;5.50;3.17;;;3.10;71.50;;;;;;3580122;40;20166;-62
2021/04/04 05:57:18;;;;;;;5.93;3.22;;;3.70;68.70;;;;;;3580013;40;20052;-62
2021/04/04 05:59:48;;;;;;;5.78;3.20;;;4.40;65.30;;;;;;3578277;40;20795;-62
2021/04/04 06:02:34;;;;;;;5.03;3.20;;;5.10;62.80;;;;;;3580300;40;20107;-62
2021/04/04 06:05:07;;;;;;;6.85;3.83;;;5.90;59.80;;;;;;3576635;40;20068;-62
2021/04/04 06:08:00;;;;;;;8.38;3.50;;;6.40;57.00;;;;;;3576044;40;20056;-62
2021/04/04 06:11:03;;;;;;;4.30;3.00;;;6.70;55.80;;;;;;3581037;40;20763;-61
2021/04/04 06:13:55;;;;;;;5.82;2.35;;;7.10;54.50;;;;;;3579605;40;20187;-62
2021/04/04 06:18:00;;;;;;;5.63;2.75;;;7.40;53.60;;;;;;3596251;39;20411;-64
2021/04/04 06:20:32;;;;;;;4.50;2.72;;;8.00;53.10;;;;;;3590955;39;20168;-64
2021/04/04 06:23:13;;;;;;;7.30;2.75;;;8.30;51.90;;;;;;3588354;39;20087;-63
2021/04/04 06:25:57;;;;;;;26.08;23.33;;;8.40;51.40;;;;;;3599046;39;20051;-63
2021/04/04 06:28:57;;;;;;;11.52;5.32;;;8.10;51.70;;;;;;3597248;39;20702;-63
2021/04/04 06:31:41;;;;;;;10.35;4.93;;;7.60;53.60;;;;;;3584047;39;20141;-64
2021/04/04 06:34:26;;;;;;;10.82;8.27;;;7.10;55.10;;;;;;3595405;39;20133;-64
2021/04/04 06:37:25;;;;;;;14.57;11.07;;;6.80;56.30;;;;;;3594778;39;20024;-64
2021/04/04 06:40:12;;;;;;;5.80;3.95;;;6.50;57.90;;;;;;3589343;39;20146;-64
2021/04/04 06:42:53;;;;;;;;;;;6.50;59.10;;;;;;3593020;39;20036;-65
2021/04/04 06:45:42;;;;;;;8.10;4.95;;;6.90;58.00;;;;;;3596714;39;19936;-65
2021/04/04 06:48:37;;;;;;;5.78;2.97;;;7.90;55.70;;;;;;3594050;39;20209;-64
2021/04/04 06:51:09;;;;;;;7.32;4.07;;;9.10;52.70;;;;;;3594480;39;20445;-63
2021/04/04 06:54:09;;;;;;;6.22;2.80;;;9.30;50.50;;;;;;3592721;39;20108;-65
2021/04/04 06:56:50;;;;;;;4.72;2.63;;;9.40;50.70;;;;;;3593590;39;20488;-63
2021/04/04 06:59:24;;;;;;;6.15;2.85;;;9.40;49.50;;;;;;3598399;39;20671;-65
2021/04/04 07:01:59;;;;;;;4.82;2.90;;;9.30;50.90;;;;;;3592478;39;20043;-65
2021/04/04 07:04:39;;;;;;;10.80;6.00;;;9.50;50.40;;;;;;3591022;39;20024;-64
2021/04/04 07:07:26;;;;;;;11.35;5.93;;;9.70;49.50;;;;;;3592134;39;20032;-66
2021/04/04 07:10:17;;;;;;;7.55;3.03;;;10.10;48.20;;;;;;3591636;39;20348;-63
2021/04/04 07:12:58;;;;;;;6.13;3.22;;;10.20;48.30;;;;;;3591717;39;20152;-65
2021/04/04 07:15:43;;;;;;;5.45;2.55;;;10.40;48.00;;;;;;3591626;39;20043;-65
2021/04/04 07:18:46;;;;;;;4.22;2.15;;;10.50;47.60;;;;;;3592935;39;20356;-63
2021/04/04 07:21:30;;;;;;;4.03;2.10;;;10.80;46.70;;;;;;3595082;39;20028;-67
2021/04/04 07:24:23;;;;;;;3.15;1.95;;;11.60;46.20;;;;;;3594565;39;20019;-64
2021/04/04 07:27:03;;;;;;;6.45;2.97;;;12.00;44.60;;;;;;3593007;39;20025;-64
2021/04/04 07:29:29;;;;;;;6.68;2.88;;;12.00;44.70;;;;;;3590797;39;20124;-63
2021/04/04 07:32:15;;;;;;;4.15;2.72;;;11.80;44.10;;;;;;3587004;39;20043;-62
2021/04/04 07:35:09;;;;;;;6.28;2.60;;;11.60;46.00;;;;;;3583741;40;20905;-64
2021/04/04 07:37:51;;;;;;;6.90;3.20;;;11.50;46.10;;;;;;3586172;39;20091;-62
2021/04/04 07:40:34;;;;;;;8.68;3.40;;;11.80;46.70;;;;;;3587071;39;20044;-64
2021/04/04 07:43:10;;;;;;;5.45;3.15;;;11.90;46.70;;;;;;3583900;39;20040;-64
2021/04/04 07:46:30;;;;;;;11.38;3.92;;;12.00;47.40;;;;;;3587190;39;20068;-64
2021/04/04 07:48:55;;;;;;;9.52;3.30;;;12.20;46.90;;;;;;3572673;40;20074;-63
2021/04/04 07:51:28;;;;;;;13.32;4.35;;;12.30;47.20;;;;;;3583266;39;20055;-66
2021/04/04 07:54:31;;;;;;;12.38;3.60;;;12.60;46.80;;;;;;3587381;39;20028;-64
2021/04/04 07:57:08;;;;;;;11.38;3.83;;;13.00;46.80;;;;;;3584495;39;20103;-64
2021/04/04 07:59:47;;;;;;;11.02;4.18;;;13.80;46.10;;;;;;3587125;39;20028;-63
2021/04/04 08:02:38;;;;;;;9.82;3.83;;;13.90;45.60;;;;;;3586098;39;20044;-63
2021/04/04 08:05:09;;;;;;;10.43;4.20;;;14.10;45.40;;;;;;3587483;39;20407;-64
2021/04/04 08:07:58;;;;;;;19.63;4.43;;;14.20;45.20;;;;;;3584716;40;20035;-64
2021/04/04 08:10:55;;;;;;;18.75;4.55;;;14.40;44.60;;;;;;3585382;39;20038;-63
2021/04/04 08:13:35;;;;;;;12.85;4.85;;;14.90;44.20;;;;;;3582828;39;20167;-63
2021/04/04 08:16:08;;;;;;;13.57;4.07;;;15.50;43.40;;;;;;3584549;39;20066;-64
2021/04/04 08:18:37;;;;;;;9.43;4.05;;;15.80;42.60;;;;;;3593645;39;20041;-64
2021/04/04 08:21:45;;;;;;;13.50;4.25;;;16.10;42.20;;;;;;3586300;39;20093;-66
2021/04/04 08:24:45;;;;;;;8.98;3.72;;;16.50;41.80;;;;;;3576847;39;20380;-63
2021/04/04 08:27:38;;;;;;;9.43;3.95;;;16.70;41.10;;;;;;3578653;40;20032;-64
2021/04/04 08:30:23;;;;;;;12.77;3.70;;;16.70;40.90;;;;;;3584429;39;20036;-63
2021/04/04 08:33:25;;;;;;;19.13;4.18;;;16.70;41.30;;;;;;3586399;39;20039;-63
2021/04/04 08:35:53;;;;;;;15.45;3.92;;;16.80;40.60;;;;;;3576622;40;20033;-64
2021/04/04 08:38:24;;;;;;;12.52;3.97;;;16.60;41.20;;;;;;3586908;39;20059;-64
2021/04/04 08:40:53;;;;;;;10.50;3.72;;;16.00;42.30;;;;;;3585051;39;20020;-63
2021/04/04 08:43:21;;;;;;;11.15;3.70;;;15.60;43.60;;;;;;3585255;39;20873;-63
2021/04/04 08:46:22;;;;;;;10.63;3.70;;;15.70;44.00;;;;;;3590534;39;20040;-62
2021/04/04 08:48:49;;;;;;;14.23;3.80;;;16.30;42.20;;;;;;3585311;39;20711;-64
2021/04/04 08:51:20;;;;;;;12.50;4.65;;;16.80;41.10;;;;;;3586841;39;20040;-63
2021/04/04 08:53:49;;;;;;;15.00;4.68;;;17.40;39.40;;;;;;3590084;39;20449;-64
2021/04/04 08:56:16;;;;;;;17.65;4.68;;;17.40;38.80;;;;;;3590152;39;20040;-64
2021/04/04 08:58:49;;;;;;;13.48;4.10;;;17.30;39.20;;;;;;3587146;40;20561;-63
2021/04/04 09:01:27;;;;;;;14.13;4.88;;;17.50;39.60;;;;;;3586269;39;20165;-61
2021/04/04 09:03:58;;;;;;;11.98;4.47;;;18.00;39.20;;;;;;3583568;40;20565;-59
2021/04/04 09:06:25;;;;;;;17.65;4.97;;;18.30;37.70;;;;;;3582096;39;20050;-58
2021/04/04 09:08:51;;;;;;;16.80;5.35;;;18.20;37.80;;;;;;3587330;39;20095;-59
2021/04/04 09:11:18;;;;;;;13.40;4.45;;;18.20;38.00;;;;;;3584159;39;20028;-59
2021/04/04 09:13:45;;;;;;;16.63;4.32;;;18.00;37.90;;;;;;3582455;40;20032;-59
2021/04/04 09:16:15;;;;;;;14.25;4.10;;;18.10;38.20;;;;;;3584358;39;20052;-59
2021/04/04 09:18:59;;;;;;;14.63;5.22;;;18.30;38.20;;;;;;3584673;39;20036;-58
2021/04/04 09:21:25;;;;;;;15.85;4.38;;;18.40;37.70;;;;;;3586176;39;20066;-58
2021/04/04 09:23:54;;;;;;;17.30;9.40;;;18.30;38.90;;;;;;3586096;39;20028;-60
2021/04/04 09:26:23;;;;;;;12.73;7.25;;;18.00;38.40;;;;;;3585537;39;20162;-59
2021/04/04 09:28:51;;;;;;;14.57;4.30;;;17.90;38.60;;;;;;3582268;39;20025;-58
2021/04/04 09:31:26;;;;;;;14.13;4.05;;;17.80;39.60;;;;;;3585140;39;20056;-59
2021/04/04 09:34:09;;;;;;;11.88;5.22;;;17.80;39.40;;;;;;3582185;39;20067;-60
2021/04/04 09:36:39;;;;;;;13.65;4.53;;;18.10;39.00;;;;;;3585207;39;20154;-58
2021/04/04 09:39:08;;;;;;;14.15;8.90;;;18.10;38.30;;;;;;3585079;39;20012;-58
2021/04/04 09:41:35;;;;;;;7.70;3.67;;;17.80;39.40;;;;;;3576677;39;20032;-59
2021/04/04 09:44:04;;;;;;;8.77;4.32;;;17.30;39.60;;;;;;3583192;39;20040;-59
2021/04/04 09:46:29;;;;;;;15.70;3.83;;;16.90;41.30;;;;;;3584338;39;20985;-60
2021/04/04 09:48:55;;;;;;;10.82;3.92;;;16.90;41.30;;;;;;3586064;39;20040;-58
2021/04/04 09:51:21;;;;;;;10.50;3.20;;;17.00;40.90;;;;;;3583622;39;20111;-58
2021/04/04 09:53:52;;;;;;;16.65;4.03;;;17.10;41.20;;;;;;3584647;39;20033;-58
2021/04/04 09:56:38;;;;;;;10.90;3.35;;;17.10;41.10;;;;;;3584279;39;20039;-58
2021/04/04 09:59:03;;;;;;;10.38;3.47;;;17.50;39.60;;;;;;3580147;40;20737;-58
2021/04/04 10:01:32;;;;;;;13.70;4.53;;;17.90;39.10;;;;;;3582534;40;20032;-58
2021/04/04 10:04:08;;;;;;;9.90;3.80;;;18.40;38.50;;;;;;3582815;39;20016;-58
2021/04/04 10:06:35;;;;;;;12.15;3.90;;;18.80;37.20;;;;;;3586089;39;20185;-58
2021/04/04 10:09:02;;;;;;;11.55;3.63;;;18.50;37.80;;;;;;3582028;39;20095;-59
2021/04/04 10:11:29;;;;;;;10.98;3.70;;;17.80;39.10;;;;;;3582373;39;20028;-58
2021/04/04 10:14:16;;;;;;;7.82;3.30;;;17.60;40.50;;;;;;3586611;39;20032;-59
2021/04/04 10:16:42;;;;;;;12.32;3.17;;;17.60;39.40;;;;;;3584345;39;20087;-59
2021/04/04 10:19:16;;;;;;;11.43;3.50;;;17.60;39.60;;;;;;3583862;39;20094;-58
2021/04/04 10:21:56;;;;;;;9.43;2.75;;;17.70;40.00;;;;;;3587025;39;20690;-58
2021/04/04 10:24:29;;;;;;;8.32;3.33;;;17.50;39.40;;;;;;3585628;39;20061;-59
2021/04/04 10:27:20;;;;;;;10.25;3.85;;;17.20;39.50;;;;;;3586263;39;20032;-58
2021/04/04 10:29:48;;;;;;;10.80;4.47;;;16.60;40.70;;;;;;3583214;40;20039;-58
2021/04/04 10:32:14;;;;;;;12.77;3.80;;;16.00;42.60;;;;;;3587390;39;20040;-59
2021/04/04 10:34:45;;;;;;;13.35;4.35;;;15.60;43.00;;;;;;3584766;39;20074;-60
2021/04/04 10:37:11;;;;;;;10.18;3.95;;;15.10;43.70;;;;;;3585839;39;20032;-59
2021/04/04 10:39:38;;;;;;;11.60;4.05;;;14.70;44.50;;;;;;3580769;39;20055;-59
2021/04/04 10:42:16;;;;;;;8.88;3.47;;;14.40;45.40;;;;;;3581035;40;20069;-60
2021/04/04 10:44:42;;;;;;;11.70;3.83;;;14.10;46.70;;;;;;3585788;39;20024;-58
2021/04/04 10:47:24;;;;;;;10.30;3.45;;;13.90;47.30;;;;;;3587518;39;20032;-58
2021/04/04 10:49:50;;;;;;;11.07;4.07;;;13.90;46.90;;;;;;3581388;39;20737;-58
2021/04/04 10:52:19;;;;;;;15.73;3.88;;;13.90;48.00;;;;;;3582947;39;20036;-59
2021/04/04 10:54:44;;;;;;;7.97;3.03;;;14.00;46.70;;;;;;3587381;39;20448;-58
2021/04/04 10:57:10;;;;;;;12.18;3.53;;;14.20;47.50;;;;;;3579885;40;20052;-58
2021/04/04 10:59:36;;;;;;;11.07;3.65;;;14.40;46.00;;;;;;3584520;39;20448;-59
2021/04/04 11:02:03;;;;;;;10.45;3.22;;;14.60;45.70;;;;;;3584447;39;20043;-59
2021/04/04 11:04:32;;;;;;;9.25;2.70;;;14.60;45.50;;;;;;3584577;39;20017;-59
2021/04/04 11:07:01;;;;;;;13.20;3.13;;;14.50;45.40;;;;;;3585025;39;20430;-59
2021/04/04 11:09:27;;;;;;;11.82;2.97;;;14.30;45.80;;;;;;3585669;40;20028;-59
2021/04/04 11:11:59;;;;;;;9.80;3.10;;;14.30;45.70;;;;;;3581939;40;20299;-58
2021/04/04 11:14:29;;;;;;;12.63;3.40;;;14.00;45.50;;;;;;3584468;39;20057;-58
2021/04/04 11:17:02;;;;;;;7.53;2.97;;;13.80;46.80;;;;;;3587573;39;20059;-58
2021/04/04 11:19:29;;;;;;;10.93;2.90;;;13.70;46.60;;;;;;3588688;39;20043;-58
2021/04/04 11:21:58;;;;;;;10.85;3.22;;;13.70;48.20;;;;;;3587282;39;20096;-58
2021/04/04 11:24:25;;;;;;;15.20;3.60;;;13.70;47.50;;;;;;3586189;39;20040;-59
2021/04/04 11:26:53;;;;;;;9.20;3.15;;;13.90;47.00;;;;;;3586255;39;20173;-58
2021/04/04 11:29:23;;;;;;;11.55;3.33;;;13.90;46.20;;;;;;3581110;40;20518;-59
2021/04/04 11:31:54;;;;;;;7.72;3.22;;;13.80;47.10;;;;;;3582252;39;20110;-58
2021/04/04 11:34:30;;;;;;;8.63;2.92;;;13.90;46.70;;;;;;3586315;39;20125;-59
2021/04/04 11:36:57;;;;;;;;;;;13.90;46.60;;;;;;3589196;39;20055;-59
2021/04/04 11:39:23;;;;;;;10.02;3.03;;;13.90;47.10;;;;;;3584712;39;20410;-58
2021/04/04 11:41:53;;;;;;;9.10;3.40;;;13.80;47.60;;;;;;3582107;40;20091;-59
2021/04/04 11:44:31;;;;;;;12.40;3.08;;;13.70;48.00;;;;;;3588113;39;20396;-59
2021/04/04 11:47:04;;;;;;;7.80;3.00;;;13.70;48.00;;;;;;3583430;39;20021;-59
2021/04/04 11:49:39;;;;;;;10.05;3.20;;;13.80;48.30;;;;;;3584740;40;20479;-59
2021/04/04 11:52:10;;;;;;;9.25;3.08;;;14.00;47.50;;;;;;3579852;40;20318;-58
2021/04/04 11:54:45;;;;;;;12.50;3.20;;;14.10;46.30;;;;;;3585490;39;20808;-61
2021/04/04 11:57:17;;;;;;;9.85;3.00;;;14.20;47.30;;;;;;3584255;40;20036;-58
2021/04/04 11:59:43;;;;;;;13.60;3.50;;;14.20;46.30;;;;;;3587464;40;20043;-58
2021/04/04 12:02:12;;;;;;;12.82;3.90;;;14.20;47.10;;;;;;3587929;39;20047;-58
2021/04/04 12:04:48;;;;;;;13.65;3.72;;;14.30;46.90;;;;;;3587166;39;20032;-58
2021/04/04 12:07:15;;;;;;;15.68;3.20;;;14.30;46.10;;;;;;3587773;39;20020;-58
2021/04/04 12:09:44;;;;;;;9.80;3.22;;;14.30;46.90;;;;;;3587050;39;20039;-59
2021/04/04 12:12:10;;;;;;;14.65;2.92;;;14.30;46.90;;;;;;3582893;40;20036;-58
2021/04/04 12:14:47;;;;;;;10.98;2.90;;;14.30;46.40;;;;;;3584620;39;20025;-58
2021/04/04 12:17:15;;;;;;;10.05;3.00;;;14.40;46.10;;;;;;3580546;40;20044;-58
2021/04/04 12:19:45;;;;;;;13.57;3.40;;;14.30;46.30;;;;;;3580197;40;20827;-58
2021/04/04 12:22:13;;;;;;;9.13;2.78;;;14.00;46.20;;;;;;3580966;40;20617;-59
2021/04/04 12:24:41;;;;;;;8.73;2.97;;;13.80;47.70;;;;;;3586863;39;20020;-58
2021/04/04 12:27:08;;;;;;;8.90;2.80;;;13.60;47.60;;;;;;3585497;40;20108;-58
2021/04/04 12:29:50;;;;;;;10.90;3.55;;;13.50;49.00;;;;;;3586957;39;20278;-59
2021/04/04 12:32:21;;;;;;;12.57;2.75;;;13.60;48.60;;;;;;3586426;39;20029;-58
2021/04/04 12:34:48;;;;;;;14.43;3.42;;;13.60;48.00;;;;;;3588240;39;20087;-58
2021/04/04 12:37:16;;;;;;;9.82;2.50;;;13.60;47.40;;;;;;3583611;39;20028;-59
2021/04/04 12:39:42;;;;;;;12.18;2.72;;;13.60;48.00;;;;;;3581001;39;20104;-59
2021/04/04 12:42:13;;;;;;;8.88;2.85;;;13.60;47.40;;;;;;3579038;39;20078;-59
2021/04/04 12:44:41;;;;;;;8.02;3.33;;;13.60;47.70;;;;;;3583527;39;20059;-58
2021/04/04 12:47:16;;;;;;;10.77;2.80;;;13.50;46.80;;;;;;3585342;39;20083;-58
2021/04/04 12:49:43;;;;;;;10.65;2.90;;;13.50;48.30;;;;;;3590702;39;20079;-58
2021/04/04 12:52:10;;;;;;;11.30;3.50;;;13.60;47.70;;;;;;3586200;39;20024;-58
2021/04/04 12:54:39;;;;;;;9.35;3.13;;;13.30;46.20;;;;;;3584225;40;20121;-58
2021/04/04 12:57:05;;;;;;;10.40;2.90;;;13.30;49.00;;;;;;3586652;40;20021;-59
2021/04/04 12:59:31;;;;;;;11.45;3.50;;;13.40;47.80;;;;;;3587173;40;20436;-58
2021/04/04 13:01:56;;;;;;;5.22;2.03;;;13.60;46.60;;;;;;3586019;39;20040;-58
2021/04/04 13:04:25;;;;;;;7.15;2.47;;;13.80;47.00;;;;;;3583782;39;20596;-58
2021/04/04 13:06:52;;;;;;;12.65;3.20;;;13.80;46.00;;;;;;3578480;39;20755;-58
2021/04/04 13:09:19;;;;;;;10.68;2.70;;;13.80;46.10;;;;;;3579478;40;20047;-58
2021/04/04 13:11:46;;;;;;;11.85;3.42;;;13.80;46.80;;;;;;3583533;40;20044;-58
2021/04/04 13:14:23;;;;;;;11.13;3.63;;;13.80;46.50;;;;;;3586863;39;20560;-58
2021/04/04 13:16:48;;;;;;;7.55;2.53;;;13.90;45.70;;;;;;3586550;39;20207;-58